Time;durP1;ratioP1;P1;durP2;ratioP2;P2;SDS_P1;SDS_P2;PMS_P1;PMS_P2;Temp;Humidity;BMP_temperature;BMP_pressure;BME280_temperature;BME280_humidity;BME280_pressure;Samples;Min_cycle;Max_cycle;Signal;HPM_P1;HPM_P2
2024/02/22 00:01:29;;;;;;;16.08;8.02;;;7.50;99.90;;;;;;4963311;28;20572;-71
2024/02/22 00:03:56;;;;;;;14.73;7.55;;;7.50;99.90;;;;;;4967811;28;20038;-69
2024/02/22 00:06:23;;;;;;;12.57;6.95;;;7.50;99.90;;;;;;4965172;28;20037;-71
2024/02/22 00:08:49;;;;;;;12.15;7.97;;;7.50;99.90;;;;;;4982531;28;20070;-70
2024/02/22 00:11:16;;;;;;;13.38;7.00;;;7.60;99.90;;;;;;4959437;28;20042;-69
2024/02/22 00:13:43;;;;;;;12.82;7.05;;;7.50;99.90;;;;;;4944037;28;20093;-69
2024/02/22 00:16:10;;;;;;;10.02;7.32;;;7.50;99.90;;;;;;4963456;28;20052;-69
2024/02/22 00:18:38;;;;;;;13.27;7.60;;;7.50;99.90;;;;;;4961468;28;20046;-69
2024/02/22 00:21:05;;;;;;;13.95;7.90;;;7.50;99.90;;;;;;4973553;28;20058;-69
2024/02/22 00:23:32;;;;;;;12.52;7.05;;;7.60;99.90;;;;;;4951922;28;20046;-68
2024/02/22 00:26:01;;;;;;;9.95;7.43;;;7.60;99.90;;;;;;4961910;28;20126;-68
2024/02/22 00:28:28;;;;;;;12.65;7.22;;;7.60;99.90;;;;;;4974233;28;20058;-69
2024/02/22 00:30:55;;;;;;;13.48;8.02;;;7.60;99.90;;;;;;4966760;28;20053;-70
2024/02/22 00:33:21;;;;;;;8.93;6.43;;;7.60;99.90;;;;;;4960866;28;20046;-70
2024/02/22 00:35:48;;;;;;;10.80;7.53;;;7.50;99.90;;;;;;4953271;28;20046;-68
2024/02/22 00:38:15;;;;;;;10.50;6.93;;;7.60;99.90;;;;;;4961420;28;20053;-70
2024/02/22 00:40:42;;;;;;;9.95;6.57;;;7.60;99.90;;;;;;4969919;28;20463;-69
2024/02/22 00:43:09;;;;;;;10.50;6.40;;;7.50;99.90;;;;;;4965219;28;20062;-68
2024/02/22 00:45:36;;;;;;;13.85;7.32;;;7.60;99.90;;;;;;4962449;28;20053;-69
2024/02/22 00:48:03;;;;;;;11.90;7.30;;;7.50;99.90;;;;;;4964507;28;20054;-69
2024/02/22 00:50:29;;;;;;;9.32;5.95;;;7.50;99.90;;;;;;4968846;28;20076;-70
2024/02/22 00:52:56;;;;;;;7.47;5.75;;;7.60;99.90;;;;;;4962422;28;20046;-69
2024/02/22 00:55:23;;;;;;;9.98;5.63;;;7.60;99.90;;;;;;4962554;28;20131;-68
2024/02/22 00:57:50;;;;;;;9.48;6.28;;;7.60;99.90;;;;;;4980972;28;20046;-69
2024/02/22 01:00:17;;;;;;;9.02;6.68;;;7.60;99.90;;;;;;4968080;28;20092;-69
2024/02/22 01:02:44;;;;;;;9.60;6.43;;;7.60;99.90;;;;;;4952772;28;20054;-69
2024/02/22 01:05:12;;;;;;;11.43;5.78;;;7.60;99.90;;;;;;4967448;28;20124;-70
2024/02/22 01:07:39;;;;;;;9.95;6.15;;;7.60;99.90;;;;;;4945318;28;20101;-68
2024/02/22 01:10:06;;;;;;;11.52;6.45;;;7.60;99.90;;;;;;4968376;28;20050;-70
2024/02/22 01:12:33;;;;;;;8.27;6.05;;;7.70;99.90;;;;;;4961034;28;20053;-69
2024/02/22 01:15:00;;;;;;;9.77;5.85;;;7.70;99.90;;;;;;4967850;28;20042;-70
2024/02/22 01:17:27;;;;;;;9.45;6.47;;;7.70;99.90;;;;;;4959775;28;20120;-69
2024/02/22 01:19:54;;;;;;;9.48;6.32;;;7.70;99.90;;;;;;4965715;28;20042;-69
2024/02/22 01:22:20;;;;;;;7.47;5.72;;;7.80;99.90;;;;;;4960937;28;20157;-68
2024/02/22 01:24:48;;;;;;;10.38;7.25;;;7.80;99.90;;;;;;4963774;28;20051;-69
2024/02/22 01:27:15;;;;;;;6.53;5.53;;;7.80;99.90;;;;;;4962593;28;20058;-70
2024/02/22 01:29:42;;;;;;;12.55;5.82;;;7.80;99.90;;;;;;4972228;28;20055;-69
2024/02/22 01:32:09;;;;;;;6.70;4.90;;;7.80;99.90;;;;;;4961586;28;20109;-68
2024/02/22 01:34:36;;;;;;;7.88;5.43;;;7.80;99.90;;;;;;4972119;28;20054;-70
2024/02/22 01:37:03;;;;;;;6.57;4.30;;;7.80;99.90;;;;;;4977681;28;20038;-70
2024/02/22 01:39:30;;;;;;;5.20;3.40;;;7.70;99.90;;;;;;4977914;28;20043;-69
2024/02/22 01:41:57;;;;;;;4.18;3.30;;;7.70;99.90;;;;;;4969172;28;21135;-70
2024/02/22 01:44:30;;;;;;;6.47;3.40;;;7.80;99.90;;;;;;4959832;28;20070;-69
2024/02/22 01:46:58;;;;;;;6.60;3.88;;;7.80;99.90;;;;;;4967124;28;20157;-70
2024/02/22 01:49:25;;;;;;;6.45;4.45;;;7.80;99.90;;;;;;4963738;28;20043;-69
2024/02/22 01:51:57;;;;;;;4.63;3.53;;;7.80;99.90;;;;;;4959873;28;20426;-70
2024/02/22 01:54:25;;;;;;;7.30;4.13;;;7.80;99.90;;;;;;4961985;28;20082;-68
2024/02/22 01:56:52;;;;;;;6.32;4.10;;;7.80;99.90;;;;;;4944860;28;20138;-69
2024/02/22 01:59:20;;;;;;;4.60;3.53;;;7.80;99.90;;;;;;4962866;28;20047;-69
2024/02/22 02:01:50;;;;;;;7.18;4.07;;;7.80;99.90;;;;;;4955935;28;20042;-68
2024/02/22 02:04:18;;;;;;;5.35;3.67;;;7.80;99.90;;;;;;4977935;28;20403;-70
2024/02/22 02:06:45;;;;;;;7.13;3.72;;;7.80;99.90;;;;;;4965325;28;20113;-70
2024/02/22 02:09:14;;;;;;;4.88;3.78;;;7.80;99.90;;;;;;4964380;28;20082;-69
2024/02/22 02:11:41;;;;;;;5.88;3.90;;;7.90;99.90;;;;;;4969652;28;20047;-69
2024/02/22 02:14:08;;;;;;;5.28;4.25;;;7.90;99.90;;;;;;4972020;28;20270;-70
2024/02/22 02:16:35;;;;;;;5.95;4.18;;;7.80;99.90;;;;;;4951388;28;20137;-69
2024/02/22 02:19:08;;;;;;;4.78;3.47;;;7.80;99.90;;;;;;4949369;28;20050;-69
2024/02/22 02:22:10;;;;;;;6.47;4.20;;;7.80;99.90;;;;;;4951249;28;20038;-70
2024/02/22 02:24:45;;;;;;;5.40;3.95;;;7.80;99.90;;;;;;4965498;28;20133;-70
2024/02/22 02:27:12;;;;;;;4.10;2.70;;;7.90;99.90;;;;;;4982927;28;20042;-69
2024/02/22 02:29:42;;;;;;;4.50;3.10;;;7.90;99.90;;;;;;4963603;28;20100;-69
2024/02/22 02:32:09;;;;;;;5.55;2.30;;;7.90;99.90;;;;;;4963705;28;20046;-69
2024/02/22 02:34:36;;;;;;;4.63;2.00;;;7.90;99.90;;;;;;4966220;28;20062;-70
2024/02/22 02:37:03;;;;;;;3.60;2.28;;;8.00;99.90;;;;;;4965803;28;20719;-70
2024/02/22 02:39:29;;;;;;;2.40;2.00;;;8.00;99.90;;;;;;4959251;28;20058;-69
2024/02/22 02:41:59;;;;;;;2.67;2.35;;;8.00;99.90;;;;;;4963668;28;20038;-70
2024/02/22 02:44:26;;;;;;;2.50;2.20;;;8.00;99.90;;;;;;4963122;28;20137;-68
2024/02/22 02:46:55;;;;;;;1.73;1.58;;;8.00;99.90;;;;;;4980395;28;20056;-70
2024/02/22 02:49:21;;;;;;;2.40;1.33;;;8.10;99.90;;;;;;4980242;28;20051;-69
2024/02/22 02:51:48;;;;;;;1.70;1.15;;;8.10;99.90;;;;;;4975744;28;20050;-69
2024/02/22 02:54:15;;;;;;;2.92;1.58;;;8.10;99.90;;;;;;4966442;28;20374;-69
2024/02/22 02:56:42;;;;;;;2.05;1.30;;;8.20;99.90;;;;;;4962701;28;20868;-69
2024/02/22 02:59:09;;;;;;;3.38;1.35;;;8.20;99.90;;;;;;4949372;28;20434;-69
2024/02/22 03:01:36;;;;;;;2.55;1.60;;;8.20;99.90;;;;;;4964498;28;20054;-69
2024/02/22 03:04:04;;;;;;;4.80;1.75;;;8.20;99.90;;;;;;4964890;28;20049;-71
2024/02/22 03:06:30;;;;;;;3.70;1.50;;;8.20;99.90;;;;;;4964943;28;20050;-70
2024/02/22 03:08:57;;;;;;;2.45;1.50;;;8.20;99.90;;;;;;4974259;28;20046;-70
2024/02/22 03:11:24;;;;;;;1.50;1.40;;;8.20;99.90;;;;;;4964488;28;20034;-70
2024/02/22 03:13:51;;;;;;;2.10;1.30;;;8.20;99.90;;;;;;4961758;28;20074;-69
2024/02/22 03:16:18;;;;;;;2.17;1.63;;;8.20;99.90;;;;;;4965588;28;20108;-69
2024/02/22 03:18:45;;;;;;;1.55;0.68;;;8.20;99.90;;;;;;4966416;28;20050;-70
2024/02/22 03:21:11;;;;;;;2.00;1.00;;;8.30;99.90;;;;;;4970278;28;20052;-70
2024/02/22 03:23:38;;;;;;;1.75;0.90;;;8.30;99.90;;;;;;4978402;28;20042;-69
2024/02/22 03:26:06;;;;;;;2.67;1.33;;;8.40;99.90;;;;;;4966161;28;20141;-69
2024/02/22 03:28:33;;;;;;;4.97;1.17;;;8.40;99.90;;;;;;4962036;28;20535;-69
2024/02/22 03:31:01;;;;;;;2.47;1.08;;;8.40;99.90;;;;;;4963784;28;20617;-70
2024/02/22 03:33:28;;;;;;;1.00;0.90;;;8.40;99.90;;;;;;4964168;28;20058;-68
2024/02/22 03:35:57;;;;;;;0.75;0.60;;;8.40;99.90;;;;;;4969174;28;20074;-70
2024/02/22 03:38:24;;;;;;;1.95;0.40;;;8.40;99.90;;;;;;4969267;28;20042;-70
2024/02/22 03:40:51;;;;;;;1.25;0.52;;;8.50;99.90;;;;;;4941478;28;20050;-70
2024/02/22 03:43:19;;;;;;;1.75;0.50;;;8.50;99.90;;;;;;4942582;28;20047;-69
2024/02/22 03:45:46;;;;;;;0.40;0.40;;;8.50;99.90;;;;;;4945117;28;20137;-69
2024/02/22 03:48:12;;;;;;;1.77;0.50;;;8.50;99.90;;;;;;4937279;28;20057;-69
2024/02/22 03:50:39;;;;;;;0.47;0.47;;;8.50;99.90;;;;;;4955852;28;20098;-69
2024/02/22 03:53:07;;;;;;;0.40;0.40;;;8.50;99.90;;;;;;4960940;28;20047;-69
2024/02/22 03:55:34;;;;;;;0.40;0.40;;;8.60;99.90;;;;;;4952220;28;20054;-68
2024/02/22 03:58:01;;;;;;;0.85;0.50;;;8.60;99.90;;;;;;4954555;28;20963;-70
2024/02/22 04:00:28;;;;;;;2.53;0.40;;;8.60;99.90;;;;;;4939533;28;20109;-69
2024/02/22 04:02:55;;;;;;;0.60;0.60;;;8.60;99.90;;;;;;4955805;28;20243;-70
2024/02/22 04:05:22;;;;;;;0.40;0.40;;;8.60;99.90;;;;;;4956818;28;20519;-71
2024/02/22 04:07:49;;;;;;;0.40;0.40;;;8.60;99.90;;;;;;4949043;28;20845;-70
2024/02/22 04:10:16;;;;;;;0.50;0.40;;;8.60;99.90;;;;;;4950044;28;20054;-69
2024/02/22 04:12:43;;;;;;;1.83;0.50;;;8.60;99.90;;;;;;4969552;28;20050;-72
2024/02/22 04:15:10;;;;;;;1.10;0.50;;;8.60;99.90;;;;;;4955547;28;20449;-71
2024/02/22 04:17:37;;;;;;;0.63;0.50;;;8.60;99.90;;;;;;4957147;28;20054;-72
2024/02/22 04:20:05;;;;;;;0.90;0.50;;;8.60;99.90;;;;;;4942385;28;20070;-72
2024/02/22 04:22:44;;;;;;;0.73;0.50;;;8.60;99.90;;;;;;4945724;28;20133;-69
2024/02/22 04:25:11;;;;;;;0.50;0.40;;;8.60;99.90;;;;;;4952073;28;20547;-71
2024/02/22 04:27:38;;;;;;;0.47;0.47;;;8.60;99.90;;;;;;4962272;28;20054;-70
2024/02/22 04:30:05;;;;;;;0.93;0.40;;;8.60;99.90;;;;;;4967591;28;20042;-69
2024/02/22 04:32:32;;;;;;;0.90;0.50;;;8.60;99.90;;;;;;4958349;28;20054;-72
2024/02/22 04:35:00;;;;;;;0.30;0.30;;;8.60;99.90;;;;;;4960306;28;20133;-69
2024/02/22 04:37:27;;;;;;;1.45;0.43;;;8.70;99.90;;;;;;4962532;28;20064;-72
2024/02/22 04:39:54;;;;;;;1.90;0.40;;;8.60;99.90;;;;;;4959298;28;20073;-71
2024/02/22 04:42:20;;;;;;;0.40;0.30;;;8.70;99.90;;;;;;4966997;28;20422;-72
2024/02/22 04:44:47;;;;;;;0.47;0.47;;;8.60;99.90;;;;;;4964553;28;20149;-71
2024/02/22 04:47:15;;;;;;;0.50;0.50;;;8.60;99.90;;;;;;4961345;28;20507;-71
2024/02/22 04:49:42;;;;;;;0.50;0.40;;;8.70;99.90;;;;;;4963686;28;20060;-71
2024/02/22 04:52:09;;;;;;;0.40;0.30;;;8.70;99.90;;;;;;4964167;28;20657;-71
2024/02/22 04:54:36;;;;;;;0.47;0.38;;;8.70;99.90;;;;;;4963321;28;20787;-71
2024/02/22 04:57:11;;;;;;;1.08;0.50;;;8.70;99.90;;;;;;4963455;28;20039;-71
2024/02/22 04:59:38;;;;;;;1.38;0.40;;;8.70;99.90;;;;;;4974857;28;20047;-70
2024/02/22 05:02:04;;;;;;;0.70;0.52;;;8.70;99.90;;;;;;4961684;28;20046;-70
2024/02/22 05:04:31;;;;;;;1.17;0.77;;;8.70;99.90;;;;;;4960832;28;20643;-72
2024/02/22 05:06:58;;;;;;;2.40;0.63;;;8.70;99.90;;;;;;4960192;28;20055;-71
2024/02/22 05:09:25;;;;;;;1.15;0.50;;;8.70;99.90;;;;;;4960771;28;20114;-72
2024/02/22 05:11:52;;;;;;;0.40;0.40;;;8.70;99.90;;;;;;4947262;28;20050;-70
2024/02/22 05:14:19;;;;;;;1.30;0.60;;;8.70;99.90;;;;;;4963165;28;20121;-71
2024/02/22 05:16:46;;;;;;;0.75;0.50;;;8.70;99.90;;;;;;4966074;28;20046;-72
2024/02/22 05:19:13;;;;;;;0.85;0.30;;;8.70;99.90;;;;;;4958401;28;20051;-72
2024/02/22 05:21:40;;;;;;;0.95;0.50;;;8.70;99.90;;;;;;4965382;28;20054;-71
2024/02/22 05:24:10;;;;;;;0.45;0.38;;;8.70;99.90;;;;;;4964425;28;20150;-72
2024/02/22 05:26:38;;;;;;;2.15;0.50;;;8.70;99.90;;;;;;4946360;28;20062;-71
2024/02/22 05:29:05;;;;;;;0.90;0.70;;;8.70;99.90;;;;;;4946592;28;20573;-72
2024/02/22 05:31:32;;;;;;;0.52;0.50;;;8.70;99.90;;;;;;4964928;28;20050;-71
2024/02/22 05:33:58;;;;;;;0.68;0.30;;;8.70;99.90;;;;;;4963126;28;20809;-72
2024/02/22 05:36:26;;;;;;;0.47;0.32;;;8.70;99.90;;;;;;4963351;28;20046;-71
2024/02/22 05:38:53;;;;;;;1.27;0.30;;;8.70;99.90;;;;;;4973658;28;20039;-72
2024/02/22 05:41:20;;;;;;;0.30;0.30;;;8.80;99.90;;;;;;4972349;28;20046;-71
2024/02/22 05:43:47;;;;;;;2.15;0.38;;;8.70;99.90;;;;;;4960270;28;20096;-71
2024/02/22 05:46:13;;;;;;;1.25;0.57;;;8.70;99.90;;;;;;4969830;28;20046;-71
2024/02/22 05:48:40;;;;;;;0.20;0.20;;;8.70;99.90;;;;;;4948608;28;20046;-71
2024/02/22 05:51:08;;;;;;;0.25;0.20;;;8.70;99.90;;;;;;4955130;28;20043;-71
2024/02/22 05:53:35;;;;;;;0.40;0.38;;;8.70;99.90;;;;;;4963889;28;20055;-70
2024/02/22 05:56:02;;;;;;;1.92;0.20;;;8.70;99.90;;;;;;4975438;28;20046;-71
2024/02/22 05:58:29;;;;;;;0.20;0.20;;;8.70;99.90;;;;;;4967251;28;20054;-71
2024/02/22 06:00:55;;;;;;;0.43;0.40;;;8.70;99.90;;;;;;4964601;28;20160;-72
2024/02/22 06:03:22;;;;;;;1.40;0.30;;;8.70;99.90;;;;;;4959434;28;20046;-72
2024/02/22 06:05:49;;;;;;;0.47;0.20;;;8.70;99.90;;;;;;4975837;28;20594;-70
2024/02/22 06:08:17;;;;;;;1.35;0.30;;;8.80;99.90;;;;;;4964688;28;20427;-72
2024/02/22 06:10:44;;;;;;;1.63;0.20;;;8.80;99.90;;;;;;4962777;28;20070;-68
2024/02/22 06:13:11;;;;;;;1.13;0.90;;;8.80;99.90;;;;;;4961662;28;20046;-71
2024/02/22 06:15:38;;;;;;;2.95;0.70;;;8.80;99.90;;;;;;4967317;28;20049;-71
2024/02/22 06:18:04;;;;;;;0.95;0.60;;;8.80;99.90;;;;;;4961009;28;20043;-70
2024/02/22 06:20:31;;;;;;;0.90;0.40;;;8.80;99.90;;;;;;4984244;28;20065;-71
2024/02/22 06:22:59;;;;;;;0.68;0.45;;;8.70;99.90;;;;;;4960463;28;20446;-70
2024/02/22 06:25:28;;;;;;;1.13;0.88;;;8.80;99.90;;;;;;4975902;28;20077;-71
2024/02/22 06:27:54;;;;;;;1.52;1.13;;;8.80;99.90;;;;;;4962403;28;20072;-71
2024/02/22 06:30:22;;;;;;;2.03;0.45;;;8.80;99.90;;;;;;4957157;28;20082;-72
2024/02/22 06:32:49;;;;;;;0.82;0.52;;;8.80;99.90;;;;;;4968898;28;20398;-72
2024/02/22 06:35:21;;;;;;;0.80;0.52;;;8.80;99.90;;;;;;4973654;28;20819;-72
2024/02/22 06:37:50;;;;;;;1.73;0.80;;;8.90;99.90;;;;;;4974351;28;20565;-70
2024/02/22 06:40:17;;;;;;;0.50;0.40;;;8.90;99.90;;;;;;4973395;28;20609;-71
2024/02/22 06:42:44;;;;;;;0.60;0.40;;;8.90;99.90;;;;;;4961877;28;20077;-71
2024/02/22 06:45:11;;;;;;;1.38;1.10;;;8.90;99.90;;;;;;4978425;28;20046;-71
2024/02/22 06:47:38;;;;;;;4.07;1.65;;;9.00;99.90;;;;;;4968751;28;20058;-70
2024/02/22 06:50:05;;;;;;;2.63;2.08;;;9.00;99.90;;;;;;4975890;28;20053;-72
2024/02/22 06:52:33;;;;;;;4.47;1.20;;;9.00;99.90;;;;;;4968812;28;20148;-71
2024/02/22 06:54:59;;;;;;;2.88;1.60;;;9.00;99.90;;;;;;4962707;28;20039;-71
2024/02/22 06:57:26;;;;;;;2.08;1.75;;;9.00;99.90;;;;;;4967841;28;20165;-71
2024/02/22 06:59:53;;;;;;;0.63;0.57;;;9.00;99.90;;;;;;4965228;28;20038;-71
2024/02/22 07:02:20;;;;;;;0.55;0.50;;;8.90;99.90;;;;;;4963655;28;20071;-72
2024/02/22 07:04:47;;;;;;;1.13;0.50;;;9.00;99.90;;;;;;4940936;28;20059;-71
2024/02/22 07:07:15;;;;;;;0.40;0.40;;;9.00;99.90;;;;;;4948780;28;20865;-72
2024/02/22 07:09:42;;;;;;;1.10;0.90;;;9.00;99.90;;;;;;4950231;28;20525;-70
2024/02/22 07:12:09;;;;;;;0.88;0.50;;;9.00;99.90;;;;;;4956891;28;20043;-71
2024/02/22 07:14:36;;;;;;;1.50;0.50;;;9.00;99.90;;;;;;4965638;28;20053;-71
2024/02/22 07:17:03;;;;;;;1.02;0.68;;;9.00;99.90;;;;;;4943512;28;20308;-71
2024/02/22 07:19:30;;;;;;;0.70;0.70;;;9.00;99.90;;;;;;4937131;28;20122;-72
2024/02/22 07:21:57;;;;;;;1.73;0.93;;;9.10;99.90;;;;;;4959582;28;20657;-72
2024/02/22 07:24:23;;;;;;;1.77;1.33;;;9.10;99.90;;;;;;4946574;28;20066;-72
2024/02/22 07:26:50;;;;;;;0.60;0.60;;;9.00;99.90;;;;;;4942036;28;20055;-71
2024/02/22 07:29:17;;;;;;;1.05;0.95;;;9.00;99.90;;;;;;4949133;28;20050;-71
2024/02/22 07:31:44;;;;;;;0.95;0.93;;;9.00;99.90;;;;;;4960557;28;20058;-71
2024/02/22 07:34:11;;;;;;;0.90;0.90;;;9.00;99.90;;;;;;4969287;28;20053;-71
2024/02/22 07:36:38;;;;;;;2.22;1.85;;;9.10;99.90;;;;;;4963654;28;20043;-71
2024/02/22 07:39:06;;;;;;;1.13;1.13;;;9.10;99.90;;;;;;4968879;28;20495;-70
2024/02/22 07:41:33;;;;;;;1.63;1.15;;;9.10;99.90;;;;;;4973753;28;20047;-69
2024/02/22 07:44:00;;;;;;;1.10;1.00;;;9.10;99.90;;;;;;4963935;28;20050;-70
2024/02/22 07:46:27;;;;;;;1.23;1.13;;;9.10;99.90;;;;;;4977014;28;21015;-69
2024/02/22 07:48:55;;;;;;;1.27;0.98;;;9.10;99.90;;;;;;4962161;28;20073;-70
2024/02/22 07:51:22;;;;;;;1.77;1.48;;;9.10;99.90;;;;;;4963034;28;20039;-69
2024/02/22 07:53:49;;;;;;;1.40;1.30;;;9.10;99.90;;;;;;4975183;28;20077;-69
2024/02/22 07:56:16;;;;;;;1.30;1.20;;;9.10;99.90;;;;;;4966357;28;20041;-69
2024/02/22 07:58:51;;;;;;;1.30;1.20;;;9.10;99.90;;;;;;4968449;28;20670;-68
2024/02/22 08:01:18;;;;;;;;;;;9.20;99.90;;;;;;4960317;28;20109;-69
2024/02/22 08:03:45;;;;;;;2.00;1.80;;;9.30;99.90;;;;;;4976285;28;20000;-69
2024/02/22 08:06:13;;;;;;;2.05;1.70;;;9.20;99.90;;;;;;4962478;28;20057;-68
2024/02/22 08:08:42;;;;;;;1.75;1.65;;;9.30;99.90;;;;;;4977589;28;20058;-68
2024/02/22 08:11:11;;;;;;;1.58;1.48;;;9.30;99.90;;;;;;4960512;28;21365;-69
2024/02/22 08:13:38;;;;;;;1.98;1.73;;;9.30;99.90;;;;;;4964555;28;20157;-70
2024/02/22 08:16:07;;;;;;;1.90;1.80;;;9.30;99.90;;;;;;4960543;28;20138;-70
2024/02/22 08:18:34;;;;;;;1.90;1.80;;;9.40;99.90;;;;;;4965708;28;20046;-70
2024/02/22 08:21:02;;;;;;;4.07;1.85;;;9.40;99.90;;;;;;4960936;28;20568;-69
2024/02/22 08:23:29;;;;;;;2.33;2.13;;;9.50;99.90;;;;;;4967904;28;21080;-69
2024/02/22 08:25:57;;;;;;;2.40;2.28;;;9.50;99.90;;;;;;4956287;28;20047;-69
2024/02/22 08:28:26;;;;;;;2.60;2.40;;;9.50;99.90;;;;;;4944885;28;20051;-69
2024/02/22 08:30:53;;;;;;;2.42;2.28;;;9.50;99.90;;;;;;4932343;28;20597;-70
2024/02/22 08:33:23;;;;;;;2.80;1.85;;;9.50;99.90;;;;;;4940732;28;20113;-69
2024/02/22 08:35:50;;;;;;;2.22;2.00;;;9.60;99.90;;;;;;4939675;28;20054;-70
2024/02/22 08:38:16;;;;;;;2.08;1.98;;;9.60;99.90;;;;;;4958148;28;20055;-69
2024/02/22 08:40:43;;;;;;;2.38;2.20;;;9.60;99.90;;;;;;4948513;28;20043;-70
2024/02/22 08:43:10;;;;;;;3.13;2.92;;;9.70;99.90;;;;;;4926434;28;20051;-70
2024/02/22 08:45:37;;;;;;;2.80;2.60;;;9.70;99.90;;;;;;4941185;28;20176;-70
2024/02/22 08:48:05;;;;;;;3.50;3.30;;;9.70;99.90;;;;;;4931567;28;20848;-69
2024/02/22 08:50:32;;;;;;;3.22;3.03;;;9.80;99.90;;;;;;4943974;28;20100;-69
2024/02/22 08:52:59;;;;;;;2.72;2.63;;;9.80;99.90;;;;;;4954520;28;20055;-70
2024/02/22 08:55:26;;;;;;;3.65;3.40;;;9.90;99.90;;;;;;4939789;28;20066;-69
2024/02/22 08:57:53;;;;;;;4.18;3.97;;;9.90;99.90;;;;;;4962130;28;20082;-69
2024/02/22 09:00:25;;;;;;;4.20;3.90;;;9.90;99.90;;;;;;4975510;28;20066;-70
2024/02/22 09:02:52;;;;;;;4.75;4.45;;;10.00;99.90;;;;;;4947366;28;20058;-69
2024/02/22 09:05:19;;;;;;;4.80;4.40;;;10.10;99.90;;;;;;4947659;28;20042;-69
2024/02/22 09:07:47;;;;;;;4.25;4.10;;;10.10;99.90;;;;;;4940588;28;20642;-69
2024/02/22 09:10:15;;;;;;;5.35;4.80;;;10.10;99.90;;;;;;4950008;28;20090;-70
2024/02/22 09:12:43;;;;;;;6.13;5.82;;;10.10;99.90;;;;;;4946380;28;20146;-70
2024/02/22 09:15:11;;;;;;;7.82;6.60;;;10.10;99.90;;;;;;4945757;28;20051;-70
2024/02/22 09:17:38;;;;;;;5.82;5.53;;;10.20;99.90;;;;;;4980269;28;21057;-71
2024/02/22 09:20:06;;;;;;;6.43;6.13;;;10.30;99.90;;;;;;4965903;28;20110;-72
2024/02/22 09:22:33;;;;;;;5.40;5.20;;;10.40;99.90;;;;;;4942668;28;20081;-69
2024/02/22 09:25:00;;;;;;;4.80;4.50;;;10.40;99.90;;;;;;4963515;28;20736;-71
2024/02/22 09:27:29;;;;;;;5.30;5.00;;;10.50;99.90;;;;;;4961389;28;20177;-69
2024/02/22 09:29:58;;;;;;;6.28;5.97;;;10.50;99.90;;;;;;4961575;28;20050;-70
2024/02/22 09:32:24;;;;;;;8.25;7.72;;;10.60;99.90;;;;;;4958701;28;20053;-72
2024/02/22 09:34:52;;;;;;;8.70;8.20;;;10.60;99.90;;;;;;4961681;28;20699;-69
2024/02/22 09:37:20;;;;;;;8.30;7.90;;;10.60;99.90;;;;;;4963724;28;20046;-70
2024/02/22 09:39:50;;;;;;;9.25;8.85;;;10.70;99.90;;;;;;4962036;28;20096;-70
2024/02/22 09:42:18;;;;;;;6.82;6.53;;;10.70;99.90;;;;;;4963743;28;20049;-71
2024/02/22 09:44:49;;;;;;;6.10;5.90;;;10.70;99.90;;;;;;4954988;28;20047;-70
2024/02/22 09:47:16;;;;;;;6.55;6.25;;;10.80;99.90;;;;;;4965859;28;20081;-70
2024/02/22 09:49:43;;;;;;;6.32;6.13;;;10.80;99.90;;;;;;4968671;28;20134;-71
2024/02/22 09:52:12;;;;;;;5.32;5.13;;;10.70;99.90;;;;;;4961937;28;20137;-69
2024/02/22 09:54:39;;;;;;;5.47;5.18;;;10.60;99.90;;;;;;4960596;28;20047;-72
2024/02/22 09:57:06;;;;;;;5.50;5.22;;;10.60;99.90;;;;;;4961498;28;20038;-72
2024/02/22 09:59:33;;;;;;;5.68;5.47;;;10.50;99.90;;;;;;4971149;28;20050;-72
2024/02/22 10:02:05;;;;;;;6.15;5.75;;;10.50;99.90;;;;;;4966656;28;20046;-70
2024/02/22 10:04:32;;;;;;;5.75;5.40;;;10.50;99.90;;;;;;4971979;28;20073;-72
2024/02/22 10:07:01;;;;;;;6.28;5.13;;;10.40;99.90;;;;;;4967241;28;20104;-70
2024/02/22 10:09:44;;;;;;;5.28;5.03;;;10.30;99.90;;;;;;4960156;28;20935;-69
2024/02/22 10:12:24;;;;;;;6.15;5.85;;;10.30;99.90;;;;;;4960985;28;20391;-70
2024/02/22 10:14:53;;;;;;;5.55;5.15;;;10.40;99.90;;;;;;4960569;28;20130;-72
2024/02/22 10:17:25;;;;;;;5.53;5.32;;;10.40;99.90;;;;;;4971188;28;20113;-72
2024/02/22 10:20:06;;;;;;;6.15;5.75;;;10.40;99.90;;;;;;4960032;28;20054;-72
2024/02/22 10:22:37;;;;;;;5.57;5.28;;;10.50;99.90;;;;;;4975587;28;20660;-73
2024/02/22 10:25:12;;;;;;;5.70;5.40;;;10.50;99.90;;;;;;4943677;28;20059;-72
2024/02/22 10:27:46;;;;;;;5.25;5.05;;;10.40;99.90;;;;;;4968225;28;20052;-69
2024/02/22 10:30:13;;;;;;;5.25;4.95;;;10.30;99.90;;;;;;4961502;28;20664;-72
2024/02/22 10:32:42;;;;;;;5.15;4.85;;;10.30;99.90;;;;;;4964079;28;20061;-72
2024/02/22 10:35:11;;;;;;;5.03;4.78;;;10.30;99.90;;;;;;4968000;28;20142;-72
2024/02/22 10:37:39;;;;;;;5.03;4.82;;;10.30;99.90;;;;;;4965756;28;20054;-72
2024/02/22 10:40:09;;;;;;;5.00;4.80;;;10.50;99.90;;;;;;4967712;28;20128;-73
2024/02/22 10:42:38;;;;;;;4.93;4.72;;;10.50;99.90;;;;;;4951598;28;20649;-73
2024/02/22 10:45:07;;;;;;;5.30;5.00;;;10.50;99.90;;;;;;4977333;28;20121;-73
2024/02/22 10:47:36;;;;;;;5.00;4.80;;;10.60;99.90;;;;;;4963515;28;20030;-73
2024/02/22 10:50:05;;;;;;;6.15;5.95;;;10.60;99.90;;;;;;4966655;28;20133;-73
2024/02/22 10:52:39;;;;;;;6.20;6.00;;;10.50;99.90;;;;;;4969265;28;20059;-72
2024/02/22 10:55:13;;;;;;;6.72;6.43;;;10.50;99.90;;;;;;4967617;28;20038;-71
2024/02/22 10:57:43;;;;;;;5.28;5.07;;;10.40;99.90;;;;;;4968121;28;20054;-72
2024/02/22 11:00:12;;;;;;;5.90;5.68;;;10.50;99.90;;;;;;4961464;28;20557;-72
2024/02/22 11:02:40;;;;;;;5.68;5.38;;;10.60;99.90;;;;;;4966471;28;20050;-71
2024/02/22 11:05:11;;;;;;;6.30;6.00;;;10.70;99.90;;;;;;4962252;28;20069;-71
2024/02/22 11:07:48;;;;;;;6.45;6.15;;;10.70;99.90;;;;;;4962249;28;20077;-72
2024/02/22 11:10:15;;;;;;;6.55;6.13;;;10.70;99.90;;;;;;4968395;28;20164;-69
2024/02/22 11:12:46;;;;;;;6.78;6.47;;;10.70;99.90;;;;;;4967609;28;20049;-71
2024/02/22 11:15:13;;;;;;;6.60;6.40;;;10.80;99.90;;;;;;4961617;28;20424;-71
2024/02/22 11:17:59;;;;;;;7.50;7.05;;;10.90;99.90;;;;;;4943663;28;20058;-72
2024/02/22 11:20:36;;;;;;;6.47;6.15;;;10.90;99.90;;;;;;4970407;28;20085;-72
2024/02/22 11:23:14;;;;;;;7.07;6.88;;;11.10;99.90;;;;;;4961114;28;20138;-72
2024/02/22 11:25:41;;;;;;;8.15;7.85;;;11.20;99.90;;;;;;4961903;28;20049;-72
2024/02/22 11:28:09;;;;;;;8.18;7.88;;;11.20;99.90;;;;;;4960157;28;20046;-72
2024/02/22 11:30:37;;;;;;;8.35;8.05;;;11.20;99.90;;;;;;4964398;28;20046;-72
2024/02/22 11:33:04;;;;;;;8.10;7.80;;;11.30;99.90;;;;;;4965458;28;20076;-72
2024/02/22 11:35:31;;;;;;;8.95;8.65;;;11.50;99.90;;;;;;4966536;28;20054;-72
2024/02/22 11:38:03;;;;;;;8.55;8.23;;;11.40;99.90;;;;;;4963478;28;20109;-71
2024/02/22 11:40:34;;;;;;;8.88;8.57;;;11.50;99.90;;;;;;4982162;28;20104;-72
2024/02/22 11:43:02;;;;;;;9.40;9.10;;;11.50;99.90;;;;;;4973778;28;20637;-71
2024/02/22 11:45:30;;;;;;;9.98;9.60;;;11.50;99.90;;;;;;4929275;28;20058;-72
2024/02/22 11:47:58;;;;;;;11.80;11.40;;;11.50;99.90;;;;;;4943779;28;20046;-72
2024/02/22 11:50:28;;;;;;;11.15;10.75;;;11.50;99.90;;;;;;4957028;28;20150;-72
2024/02/22 11:52:55;;;;;;;9.60;9.30;;;11.60;99.90;;;;;;4959997;28;20053;-71
2024/02/22 11:55:23;;;;;;;10.80;10.40;;;11.70;99.90;;;;;;4977533;28;20494;-72
2024/02/22 11:57:50;;;;;;;10.63;10.23;;;11.80;99.90;;;;;;4959759;28;20066;-71
2024/02/22 12:00:17;;;;;;;10.65;10.25;;;11.80;99.90;;;;;;4960230;28;20058;-71
2024/02/22 12:02:44;;;;;;;11.40;10.98;;;11.90;99.90;;;;;;4970829;28;20800;-73
2024/02/22 12:05:12;;;;;;;11.90;11.27;;;11.90;99.90;;;;;;4971082;28;20057;-72
2024/02/22 12:07:40;;;;;;;12.15;11.65;;;12.00;99.90;;;;;;4976567;28;20042;-73
2024/02/22 12:10:09;;;;;;;11.98;11.38;;;12.00;99.90;;;;;;4964387;28;20553;-73
2024/02/22 12:12:39;;;;;;;13.18;12.68;;;11.90;99.90;;;;;;4963305;28;20046;-71
2024/02/22 12:15:06;;;;;;;12.15;11.65;;;11.80;99.90;;;;;;4961360;28;20046;-72
2024/02/22 12:17:34;;;;;;;13.02;12.52;;;11.70;99.90;;;;;;4963029;28;20045;-72
2024/02/22 12:20:02;;;;;;;12.45;11.95;;;11.70;99.90;;;;;;4960415;28;20065;-73
2024/02/22 12:22:34;;;;;;;12.30;11.80;;;11.70;99.90;;;;;;4959916;28;20066;-72
2024/02/22 12:25:01;;;;;;;13.02;12.52;;;11.70;99.90;;;;;;4957975;28;20054;-72
2024/02/22 12:27:28;;;;;;;11.70;11.20;;;11.60;99.90;;;;;;4955108;28;20552;-73
2024/02/22 12:29:57;;;;;;;12.75;12.25;;;11.60;99.90;;;;;;4962838;28;20065;-75
2024/02/22 12:32:24;;;;;;;14.35;13.75;;;11.60;99.90;;;;;;4963251;28;20072;-72
2024/02/22 12:34:52;;;;;;;15.40;14.60;;;11.70;99.90;;;;;;4960571;28;20123;-73
2024/02/22 12:37:20;;;;;;;15.68;15.07;;;11.70;99.90;;;;;;4968206;28;20057;-71
2024/02/22 12:39:50;;;;;;;12.98;12.48;;;11.80;99.90;;;;;;4971174;28;20906;-72
2024/02/22 12:42:17;;;;;;;16.10;15.40;;;11.80;99.90;;;;;;4941895;28;20058;-72
2024/02/22 12:44:44;;;;;;;16.50;15.80;;;11.80;99.90;;;;;;4942427;28;20420;-72
2024/02/22 12:47:12;;;;;;;12.13;11.57;;;11.90;99.90;;;;;;4969469;28;20042;-72
2024/02/22 12:49:39;;;;;;;13.82;13.23;;;11.90;99.90;;;;;;4940122;28;20816;-72
2024/02/22 12:52:06;;;;;;;14.00;13.40;;;11.90;99.90;;;;;;4960054;28;20526;-71
2024/02/22 12:54:33;;;;;;;13.65;13.05;;;11.90;99.90;;;;;;4949392;28;20053;-72
2024/02/22 12:57:01;;;;;;;13.50;13.00;;;12.00;99.90;;;;;;4971609;28;20055;-72